sensor_id;sensor_type;location;lat;lon;timestamp;pressure;altitude;pressure_sealevel;temperature;humidity
23635;BME280;11994;51.038;16.974;2023-04-26T00:00:34;99778.05;;;5.89;68.85
23635;BME280;11994;51.038;16.974;2023-04-26T00:02:59;99779.46;;;5.87;68.88
23635;BME280;11994;51.038;16.974;2023-04-26T00:05:24;99780.70;;;5.85;68.88
23635;BME280;11994;51.038;16.974;2023-04-26T00:07:50;99780.89;;;5.83;68.93
23635;BME280;11994;51.038;16.974;2023-04-26T00:10:15;99780.56;;;5.80;68.89
23635;BME280;11994;51.038;16.974;2023-04-26T00:12:40;99781.95;;;5.78;68.86
23635;BME280;11994;51.038;16.974;2023-04-26T00:15:06;99780.60;;;5.74;68.94
23635;BME280;11994;51.038;16.974;2023-04-26T00:17:32;99782.55;;;5.72;69.06
23635;BME280;11994;51.038;16.974;2023-04-26T00:19:57;99784.80;;;5.71;69.05
23635;BME280;11994;51.038;16.974;2023-04-26T00:22:23;99784.32;;;5.69;69.04
23635;BME280;11994;51.038;16.974;2023-04-26T00:24:49;99787.13;;;5.66;69.20
23635;BME280;11994;51.038;16.974;2023-04-26T00:27:15;99786.29;;;5.62;69.17
23635;BME280;11994;51.038;16.974;2023-04-26T00:29:40;99786.67;;;5.60;69.21
23635;BME280;11994;51.038;16.974;2023-04-26T00:32:06;99779.94;;;5.57;69.22
23635;BME280;11994;51.038;16.974;2023-04-26T00:34:31;99785.16;;;5.54;69.43
23635;BME280;11994;51.038;16.974;2023-04-26T00:36:57;99789.01;;;5.52;69.40
23635;BME280;11994;51.038;16.974;2023-04-26T00:39:22;99795.61;;;5.49;69.34
23635;BME280;11994;51.038;16.974;2023-04-26T00:41:48;99800.83;;;5.48;69.47
23635;BME280;11994;51.038;16.974;2023-04-26T00:44:13;99802.05;;;5.46;69.57
23635;BME280;11994;51.038;16.974;2023-04-26T00:46:39;99803.48;;;5.44;69.70
23635;BME280;11994;51.038;16.974;2023-04-26T00:49:06;99805.41;;;5.42;69.56
23635;BME280;11994;51.038;16.974;2023-04-26T00:51:31;99806.98;;;5.40;69.65
23635;BME280;11994;51.038;16.974;2023-04-26T00:53:56;99813.40;;;5.39;69.75
23635;BME280;11994;51.038;16.974;2023-04-26T00:56:23;99812.52;;;5.40;69.58
23635;BME280;11994;51.038;16.974;2023-04-26T00:58:48;99814.60;;;5.41;69.74
23635;BME280;11994;51.038;16.974;2023-04-26T01:01:14;99811.11;;;5.44;69.75
23635;BME280;11994;51.038;16.974;2023-04-26T01:03:39;99811.27;;;5.45;69.72
23635;BME280;11994;51.038;16.974;2023-04-26T01:06:04;99815.60;;;5.45;69.84
23635;BME280;11994;51.038;16.974;2023-04-26T01:08:30;99815.63;;;5.43;69.96
23635;BME280;11994;51.038;16.974;2023-04-26T01:10:55;99816.15;;;5.42;69.90
23635;BME280;11994;51.038;16.974;2023-04-26T01:13:22;99820.15;;;5.40;70.02
23635;BME280;11994;51.038;16.974;2023-04-26T01:15:47;99817.58;;;5.38;69.97
23635;BME280;11994;51.038;16.974;2023-04-26T01:18:13;99817.42;;;5.34;69.98
23635;BME280;11994;51.038;16.974;2023-04-26T01:20:39;99820.23;;;5.31;70.07
23635;BME280;11994;51.038;16.974;2023-04-26T01:23:05;99819.20;;;5.31;69.97
23635;BME280;11994;51.038;16.974;2023-04-26T01:25:31;99824.58;;;5.29;70.09
23635;BME280;11994;51.038;16.974;2023-04-26T01:27:56;99824.08;;;5.28;70.06
23635;BME280;11994;51.038;16.974;2023-04-26T01:30:21;99829.11;;;5.27;70.12
23635;BME280;11994;51.038;16.974;2023-04-26T01:32:47;99827.38;;;5.27;70.12
23635;BME280;11994;51.038;16.974;2023-04-26T01:35:12;99827.73;;;5.27;70.16
23635;BME280;11994;51.038;16.974;2023-04-26T01:37:38;99829.64;;;5.26;70.27
23635;BME280;11994;51.038;16.974;2023-04-26T01:40:03;99830.84;;;5.26;70.27
23635;BME280;11994;51.038;16.974;2023-04-26T01:42:31;99832.25;;;5.25;70.26
23635;BME280;11994;51.038;16.974;2023-04-26T01:44:56;99830.38;;;5.23;70.45
23635;BME280;11994;51.038;16.974;2023-04-26T01:47:22;99833.33;;;5.20;70.62
23635;BME280;11994;51.038;16.974;2023-04-26T01:49:47;99834.05;;;5.18;70.59
23635;BME280;11994;51.038;16.974;2023-04-26T01:52:12;99835.09;;;5.16;70.67
23635;BME280;11994;51.038;16.974;2023-04-26T01:54:38;99840.14;;;5.15;70.58
23635;BME280;11994;51.038;16.974;2023-04-26T01:57:03;99836.13;;;5.18;70.72
23635;BME280;11994;51.038;16.974;2023-04-26T01:59:28;99837.83;;;5.20;70.68
23635;BME280;11994;51.038;16.974;2023-04-26T02:01:53;99837.65;;;5.23;70.96
23635;BME280;11994;51.038;16.974;2023-04-26T02:04:19;99836.41;;;5.25;70.95
23635;BME280;11994;51.038;16.974;2023-04-26T02:06:44;99837.98;;;5.24;71.17
23635;BME280;11994;51.038;16.974;2023-04-26T02:09:09;99842.33;;;5.21;71.09
23635;BME280;11994;51.038;16.974;2023-04-26T02:11:35;99843.75;;;5.18;71.17
23635;BME280;11994;51.038;16.974;2023-04-26T02:14:00;99840.33;;;5.13;71.21
23635;BME280;11994;51.038;16.974;2023-04-26T02:16:26;99842.09;;;5.08;71.31
23635;BME280;11994;51.038;16.974;2023-04-26T02:18:51;99841.42;;;5.04;71.40
23635;BME280;11994;51.038;16.974;2023-04-26T02:21:19;99841.80;;;5.00;71.52
23635;BME280;11994;51.038;16.974;2023-04-26T02:23:45;99845.46;;;4.97;71.53
23635;BME280;11994;51.038;16.974;2023-04-26T02:26:10;99838.56;;;4.93;71.70
23635;BME280;11994;51.038;16.974;2023-04-26T02:28:36;99840.83;;;4.91;71.86
23635;BME280;11994;51.038;16.974;2023-04-26T02:31:02;99843.77;;;4.90;72.01
23635;BME280;11994;51.038;16.974;2023-04-26T02:33:27;99843.27;;;4.89;72.07
23635;BME280;11994;51.038;16.974;2023-04-26T02:35:52;99844.14;;;4.88;72.18
23635;BME280;11994;51.038;16.974;2023-04-26T02:38:18;99848.14;;;4.87;72.17
23635;BME280;11994;51.038;16.974;2023-04-26T02:40:43;99847.61;;;4.86;72.35
23635;BME280;11994;51.038;16.974;2023-04-26T02:43:09;99849.52;;;4.86;72.57
23635;BME280;11994;51.038;16.974;2023-04-26T02:45:39;99849.53;;;4.86;72.38
23635;BME280;11994;51.038;16.974;2023-04-26T02:48:05;99851.43;;;4.86;72.47
23635;BME280;11994;51.038;16.974;2023-04-26T02:50:30;99846.04;;;4.87;72.55
23635;BME280;11994;51.038;16.974;2023-04-26T02:52:55;99842.91;;;4.91;72.73
23635;BME280;11994;51.038;16.974;2023-04-26T02:55:20;99840.28;;;4.94;72.83
23635;BME280;11994;51.038;16.974;2023-04-26T02:57:46;99847.02;;;4.98;72.87
23635;BME280;11994;51.038;16.974;2023-04-26T03:00:11;99847.70;;;5.01;72.85
23635;BME280;11994;51.038;16.974;2023-04-26T03:02:38;99851.33;;;5.02;73.01
23635;BME280;11994;51.038;16.974;2023-04-26T03:05:03;99853.92;;;5.02;72.94
23635;BME280;11994;51.038;16.974;2023-04-26T03:07:28;99852.54;;;5.02;73.15
23635;BME280;11994;51.038;16.974;2023-04-26T03:09:53;99853.77;;;5.00;73.10
23635;BME280;11994;51.038;16.974;2023-04-26T03:12:19;99856.19;;;4.99;73.18
23635;BME280;11994;51.038;16.974;2023-04-26T03:14:44;99855.52;;;4.96;73.22
23635;BME280;11994;51.038;16.974;2023-04-26T03:17:09;99859.70;;;4.94;73.14
23635;BME280;11994;51.038;16.974;2023-04-26T03:19:35;99859.37;;;4.90;73.26
23635;BME280;11994;51.038;16.974;2023-04-26T03:22:00;99862.51;;;4.87;73.23
23635;BME280;11994;51.038;16.974;2023-04-26T03:24:25;99859.05;;;4.85;73.32
23635;BME280;11994;51.038;16.974;2023-04-26T03:26:51;99864.10;;;4.83;73.29
23635;BME280;11994;51.038;16.974;2023-04-26T03:29:16;99865.67;;;4.80;73.50
23635;BME280;11994;51.038;16.974;2023-04-26T03:31:41;99868.80;;;4.77;73.55
23635;BME280;11994;51.038;16.974;2023-04-26T03:34:07;99871.92;;;4.76;73.58
23635;BME280;11994;51.038;16.974;2023-04-26T03:36:33;99877.49;;;4.74;73.60
23635;BME280;11994;51.038;16.974;2023-04-26T03:38:59;99881.29;;;4.75;73.62
23635;BME280;11994;51.038;16.974;2023-04-26T03:41:24;99880.23;;;4.77;73.72
23635;BME280;11994;51.038;16.974;2023-04-26T03:43:49;99879.20;;;4.79;73.62
23635;BME280;11994;51.038;16.974;2023-04-26T03:46:15;99879.17;;;4.81;73.69
23635;BME280;11994;51.038;16.974;2023-04-26T03:48:40;99879.16;;;4.83;73.87
23635;BME280;11994;51.038;16.974;2023-04-26T03:51:05;99887.47;;;4.83;73.77
23635;BME280;11994;51.038;16.974;2023-04-26T03:53:31;99891.46;;;4.84;73.78
23635;BME280;11994;51.038;16.974;2023-04-26T03:55:56;99894.75;;;4.83;73.89
23635;BME280;11994;51.038;16.974;2023-04-26T03:58:22;99898.40;;;4.82;73.70
23635;BME280;11994;51.038;16.974;2023-04-26T04:00:47;99898.92;;;4.81;73.87
23635;BME280;11994;51.038;16.974;2023-04-26T04:03:12;99902.39;;;4.80;73.89
23635;BME280;11994;51.038;16.974;2023-04-26T04:05:38;99902.93;;;4.79;73.87
23635;BME280;11994;51.038;16.974;2023-04-26T04:08:04;99904.30;;;4.78;73.93
23635;BME280;11994;51.038;16.974;2023-04-26T04:10:30;99908.30;;;4.78;74.03
23635;BME280;11994;51.038;16.974;2023-04-26T04:12:55;99912.27;;;4.79;74.17
23635;BME280;11994;51.038;16.974;2023-04-26T04:15:21;99914.83;;;4.84;74.00
23635;BME280;11994;51.038;16.974;2023-04-26T04:17:47;99917.59;;;4.90;74.09
23635;BME280;11994;51.038;16.974;2023-04-26T04:20:12;99918.75;;;4.98;73.91
23635;BME280;11994;51.038;16.974;2023-04-26T04:22:38;99921.31;;;5.03;74.19
23635;BME280;11994;51.038;16.974;2023-04-26T04:25:06;99924.93;;;5.08;74.29
23635;BME280;11994;51.038;16.974;2023-04-26T04:27:32;99925.09;;;5.11;74.04
23635;BME280;11994;51.038;16.974;2023-04-26T04:29:57;99929.75;;;5.13;73.97
23635;BME280;11994;51.038;16.974;2023-04-26T04:32:22;99930.27;;;5.13;73.89
23635;BME280;11994;51.038;16.974;2023-04-26T04:34:48;99937.20;;;5.14;73.96
23635;BME280;11994;51.038;16.974;2023-04-26T04:37:16;99932.89;;;5.12;73.86
23635;BME280;11994;51.038;16.974;2023-04-26T04:39:42;99936.18;;;5.11;73.87
23635;BME280;11994;51.038;16.974;2023-04-26T04:42:07;99936.00;;;5.10;74.03
23635;BME280;11994;51.038;16.974;2023-04-26T04:44:32;99933.24;;;5.09;73.98
23635;BME280;11994;51.038;16.974;2023-04-26T04:46:57;99935.50;;;5.08;73.93
23635;BME280;11994;51.038;16.974;2023-04-26T04:49:23;99939.85;;;5.07;74.02
23635;BME280;11994;51.038;16.974;2023-04-26T04:51:49;99942.79;;;5.06;74.16
23635;BME280;11994;51.038;16.974;2023-04-26T04:54:15;99945.39;;;5.07;74.16
23635;BME280;11994;51.038;16.974;2023-04-26T04:56:41;99944.66;;;5.11;74.25
23635;BME280;11994;51.038;16.974;2023-04-26T04:59:06;99951.04;;;5.16;74.58
23635;BME280;11994;51.038;16.974;2023-04-26T05:01:32;99949.29;;;5.20;74.56
23635;BME280;11994;51.038;16.974;2023-04-26T05:03:58;99948.40;;;5.24;74.51
23635;BME280;11994;51.038;16.974;2023-04-26T05:06:23;99951.52;;;5.25;74.46
23635;BME280;11994;51.038;16.974;2023-04-26T05:08:49;99952.02;;;5.26;74.50
23635;BME280;11994;51.038;16.974;2023-04-26T05:11:14;99949.41;;;5.28;74.46
23635;BME280;11994;51.038;16.974;2023-04-26T05:13:39;99951.46;;;5.32;74.51
23635;BME280;11994;51.038;16.974;2023-04-26T05:16:05;99957.86;;;5.35;74.49
23635;BME280;11994;51.038;16.974;2023-04-26T05:18:30;99954.54;;;5.39;74.62
23635;BME280;11994;51.038;16.974;2023-04-26T05:20:56;99956.77;;;5.43;74.07
23635;BME280;11994;51.038;16.974;2023-04-26T05:23:21;99959.85;;;5.48;74.30
23635;BME280;11994;51.038;16.974;2023-04-26T05:25:46;99964.64;;;5.57;74.47
23635;BME280;11994;51.038;16.974;2023-04-26T05:28:12;99966.65;;;5.66;74.21
23635;BME280;11994;51.038;16.974;2023-04-26T05:30:38;99966.77;;;5.75;74.14
23635;BME280;11994;51.038;16.974;2023-04-26T05:33:03;99969.48;;;5.83;74.03
23635;BME280;11994;51.038;16.974;2023-04-26T05:35:29;99971.34;;;5.92;73.86
23635;BME280;11994;51.038;16.974;2023-04-26T05:37:54;99970.42;;;5.96;73.78
23635;BME280;11994;51.038;16.974;2023-04-26T05:40:19;99975.08;;;6.01;73.70
23635;BME280;11994;51.038;16.974;2023-04-26T05:42:44;99974.66;;;6.07;73.52
23635;BME280;11994;51.038;16.974;2023-04-26T05:45:10;99974.11;;;6.11;73.53
23635;BME280;11994;51.038;16.974;2023-04-26T05:47:35;99978.36;;;6.19;73.31
23635;BME280;11994;51.038;16.974;2023-04-26T05:50:01;99979.04;;;6.22;73.35
23635;BME280;11994;51.038;16.974;2023-04-26T05:52:26;99984.89;;;6.27;73.01
23635;BME280;11994;51.038;16.974;2023-04-26T05:54:52;99984.53;;;6.26;72.85
23635;BME280;11994;51.038;16.974;2023-04-26T05:57:17;99990.78;;;6.27;72.50
23635;BME280;11994;51.038;16.974;2023-04-26T05:59:43;99988.48;;;6.32;72.73
23635;BME280;11994;51.038;16.974;2023-04-26T06:02:08;99987.77;;;6.35;72.24
23635;BME280;11994;51.038;16.974;2023-04-26T06:04:34;99992.92;;;6.40;72.18
23635;BME280;11994;51.038;16.974;2023-04-26T06:06:59;99991.66;;;6.45;72.15
23635;BME280;11994;51.038;16.974;2023-04-26T06:09:24;99991.92;;;6.52;72.12
23635;BME280;11994;51.038;16.974;2023-04-26T06:11:50;99994.30;;;6.56;71.79
23635;BME280;11994;51.038;16.974;2023-04-26T06:14:15;99993.75;;;6.60;71.83
23635;BME280;11994;51.038;16.974;2023-04-26T06:16:40;99994.69;;;6.68;71.80
23635;BME280;11994;51.038;16.974;2023-04-26T06:19:06;99994.39;;;6.78;71.60
23635;BME280;11994;51.038;16.974;2023-04-26T06:21:31;99999.33;;;6.86;71.16
23635;BME280;11994;51.038;16.974;2023-04-26T06:23:57;99994.99;;;6.86;70.91
23635;BME280;11994;51.038;16.974;2023-04-26T06:26:22;99995.86;;;6.87;71.23
23635;BME280;11994;51.038;16.974;2023-04-26T06:28:47;99998.93;;;6.91;70.78
23635;BME280;11994;51.038;16.974;2023-04-26T06:31:12;100003.82;;;6.90;70.68
23635;BME280;11994;51.038;16.974;2023-04-26T06:33:38;100002.86;;;6.97;70.57
23635;BME280;11994;51.038;16.974;2023-04-26T06:36:03;99999.40;;;6.96;70.28
23635;BME280;11994;51.038;16.974;2023-04-26T06:38:28;100002.88;;;6.96;70.09
23635;BME280;11994;51.038;16.974;2023-04-26T06:40:54;100001.38;;;6.91;69.78
23635;BME280;11994;51.038;16.974;2023-04-26T06:43:19;100004.30;;;6.79;69.73
23635;BME280;11994;51.038;16.974;2023-04-26T06:45:44;100006.19;;;6.81;70.39
23635;BME280;11994;51.038;16.974;2023-04-26T06:48:10;100000.63;;;6.94;70.25
23635;BME280;11994;51.038;16.974;2023-04-26T06:50:38;100002.56;;;7.07;70.47
23635;BME280;11994;51.038;16.974;2023-04-26T06:53:04;100000.27;;;7.23;69.82
23635;BME280;11994;51.038;16.974;2023-04-26T06:55:29;100001.73;;;7.30;69.60
23635;BME280;11994;51.038;16.974;2023-04-26T06:57:55;100003.14;;;7.29;69.13
23635;BME280;11994;51.038;16.974;2023-04-26T07:00:20;100002.88;;;7.22;68.92
23635;BME280;11994;51.038;16.974;2023-04-26T07:02:46;100002.95;;;7.17;68.87
23635;BME280;11994;51.038;16.974;2023-04-26T07:05:11;100000.80;;;7.21;68.88
23635;BME280;11994;51.038;16.974;2023-04-26T07:07:37;100004.95;;;7.35;68.57
23635;BME280;11994;51.038;16.974;2023-04-26T07:10:02;100008.08;;;7.36;67.72
23635;BME280;11994;51.038;16.974;2023-04-26T07:12:28;100012.55;;;7.27;67.62
23635;BME280;11994;51.038;16.974;2023-04-26T07:14:53;100011.12;;;7.30;67.57
23635;BME280;11994;51.038;16.974;2023-04-26T07:17:18;100013.96;;;7.38;67.62
23635;BME280;11994;51.038;16.974;2023-04-26T07:19:43;100009.40;;;7.53;67.52
23635;BME280;11994;51.038;16.974;2023-04-26T07:22:09;100004.81;;;7.69;67.09
23635;BME280;11994;51.038;16.974;2023-04-26T07:24:35;100005.36;;;7.68;66.82
23635;BME280;11994;51.038;16.974;2023-04-26T07:27:00;100006.38;;;7.68;66.89
23635;BME280;11994;51.038;16.974;2023-04-26T07:29:26;100006.35;;;7.71;66.19
23635;BME280;11994;51.038;16.974;2023-04-26T07:31:51;100005.92;;;7.76;66.23
23635;BME280;11994;51.038;16.974;2023-04-26T07:34:16;100014.91;;;7.80;65.24
23635;BME280;11994;51.038;16.974;2023-04-26T07:36:42;100012.48;;;7.70;64.73
23635;BME280;11994;51.038;16.974;2023-04-26T07:39:07;100012.83;;;7.69;64.99
23635;BME280;11994;51.038;16.974;2023-04-26T07:41:34;100013.55;;;7.78;64.94
23635;BME280;11994;51.038;16.974;2023-04-26T07:43:59;100016.92;;;7.85;65.10
23635;BME280;11994;51.038;16.974;2023-04-26T07:46:24;100013.58;;;7.87;64.33
23635;BME280;11994;51.038;16.974;2023-04-26T07:48:50;100018.04;;;7.81;64.58
23635;BME280;11994;51.038;16.974;2023-04-26T07:51:15;100021.54;;;7.80;63.91
23635;BME280;11994;51.038;16.974;2023-04-26T07:53:40;100024.95;;;7.85;63.77
23635;BME280;11994;51.038;16.974;2023-04-26T07:56:06;100023.14;;;7.99;64.12
23635;BME280;11994;51.038;16.974;2023-04-26T07:58:34;100022.60;;;8.12;63.39
23635;BME280;11994;51.038;16.974;2023-04-26T08:01:00;100020.48;;;8.23;63.80
23635;BME280;11994;51.038;16.974;2023-04-26T08:03:25;100022.00;;;8.26;63.33
23635;BME280;11994;51.038;16.974;2023-04-26T08:05:52;100019.63;;;8.23;62.68
23635;BME280;11994;51.038;16.974;2023-04-26T08:08:17;100020.46;;;8.26;62.57
23635;BME280;11994;51.038;16.974;2023-04-26T08:10:43;100018.73;;;8.35;62.90
23635;BME280;11994;51.038;16.974;2023-04-26T08:13:08;100018.00;;;8.47;62.88
23635;BME280;11994;51.038;16.974;2023-04-26T08:15:33;100021.24;;;8.50;62.02
23635;BME280;11994;51.038;16.974;2023-04-26T08:17:58;100022.30;;;8.41;61.16
23635;BME280;11994;51.038;16.974;2023-04-26T08:20:24;100021.53;;;8.25;61.31
23635;BME280;11994;51.038;16.974;2023-04-26T08:22:53;100024.99;;;8.26;61.22
23635;BME280;11994;51.038;16.974;2023-04-26T08:25:19;100025.42;;;8.30;61.62
23635;BME280;11994;51.038;16.974;2023-04-26T08:27:44;100029.56;;;8.33;61.93
23635;BME280;11994;51.038;16.974;2023-04-26T08:30:09;100034.45;;;8.32;61.36
23635;BME280;11994;51.038;16.974;2023-04-26T08:32:35;100038.07;;;8.26;61.41
23635;BME280;11994;51.038;16.974;2023-04-26T08:35:00;100037.13;;;8.29;61.69
23635;BME280;11994;51.038;16.974;2023-04-26T08:37:25;100038.35;;;8.39;61.36
23635;BME280;11994;51.038;16.974;2023-04-26T08:39:51;100040.85;;;8.35;60.49
23635;BME280;11994;51.038;16.974;2023-04-26T08:42:16;100041.41;;;8.23;60.06
23635;BME280;11994;51.038;16.974;2023-04-26T08:44:42;100041.43;;;8.21;60.97
23635;BME280;11994;51.038;16.974;2023-04-26T08:49:46;100034.30;;;8.51;60.54
23635;BME280;11994;51.038;16.974;2023-04-26T08:52:17;100036.83;;;8.56;59.83
23635;BME280;11994;51.038;16.974;2023-04-26T08:54:47;100034.54;;;8.57;59.83
23635;BME280;11994;51.038;16.974;2023-04-26T08:57:13;100034.97;;;8.62;60.23
23635;BME280;11994;51.038;16.974;2023-04-26T08:59:40;100038.09;;;8.72;60.30
23635;BME280;11994;51.038;16.974;2023-04-26T09:02:05;100041.52;;;8.76;59.72
23635;BME280;11994;51.038;16.974;2023-04-26T09:04:31;100046.12;;;8.71;59.78
23635;BME280;11994;51.038;16.974;2023-04-26T09:07:00;100050.24;;;8.65;59.92
23635;BME280;11994;51.038;16.974;2023-04-26T09:09:33;100051.06;;;8.59;59.93
23635;BME280;11994;51.038;16.974;2023-04-26T09:12:01;100045.80;;;8.42;60.03
23635;BME280;11994;51.038;16.974;2023-04-26T09:14:27;100042.34;;;8.29;60.37
23635;BME280;11994;51.038;16.974;2023-04-26T09:16:53;100044.14;;;8.27;60.99
23635;BME280;11994;51.038;16.974;2023-04-26T09:19:37;100041.39;;;8.54;61.85
23635;BME280;11994;51.038;16.974;2023-04-26T09:22:03;100040.47;;;8.85;61.38
23635;BME280;11994;51.038;16.974;2023-04-26T09:24:50;100034.08;;;9.07;60.47
23635;BME280;11994;51.038;16.974;2023-04-26T09:27:18;100037.22;;;9.24;60.31
23635;BME280;11994;51.038;16.974;2023-04-26T09:29:57;100038.20;;;9.36;60.46
23635;BME280;11994;51.038;16.974;2023-04-26T09:32:23;100044.07;;;9.39;60.04
23635;BME280;11994;51.038;16.974;2023-04-26T09:34:49;100041.54;;;9.42;59.15
23635;BME280;11994;51.038;16.974;2023-04-26T09:37:14;100042.02;;;9.45;58.44
23635;BME280;11994;51.038;16.974;2023-04-26T09:39:40;100044.34;;;9.50;57.71
23635;BME280;11994;51.038;16.974;2023-04-26T09:42:06;100043.09;;;9.51;57.50
23635;BME280;11994;51.038;16.974;2023-04-26T09:44:32;100042.08;;;9.42;57.28
23635;BME280;11994;51.038;16.974;2023-04-26T09:49:26;100045.74;;;9.09;57.10
23635;BME280;11994;51.038;16.974;2023-04-26T09:51:58;100050.59;;;9.02;57.61
23635;BME280;11994;51.038;16.974;2023-04-26T09:54:36;100050.17;;;8.97;57.29
23635;BME280;11994;51.038;16.974;2023-04-26T09:57:01;100051.70;;;9.07;57.82
23635;BME280;11994;51.038;16.974;2023-04-26T09:59:37;100048.10;;;9.13;58.19
23635;BME280;11994;51.038;16.974;2023-04-26T10:02:03;100043.61;;;8.93;59.10
23635;BME280;11994;51.038;16.974;2023-04-26T10:04:29;100045.89;;;8.84;59.41
23635;BME280;11994;51.038;16.974;2023-04-26T10:06:55;100045.17;;;8.76;59.32
23635;BME280;11994;51.038;16.974;2023-04-26T10:09:21;100043.30;;;8.74;59.80
23635;BME280;11994;51.038;16.974;2023-04-26T10:11:46;100043.06;;;8.86;58.78
23635;BME280;11994;51.038;16.974;2023-04-26T10:14:12;100044.80;;;8.86;58.08
23635;BME280;11994;51.038;16.974;2023-04-26T10:16:38;100043.90;;;8.79;58.03
23635;BME280;11994;51.038;16.974;2023-04-26T10:19:05;100038.40;;;8.92;58.74
23635;BME280;11994;51.038;16.974;2023-04-26T10:21:32;100037.63;;;9.13;58.31
23635;BME280;11994;51.038;16.974;2023-04-26T10:23:59;100036.66;;;9.18;57.64
23635;BME280;11994;51.038;16.974;2023-04-26T10:29:08;100039.70;;;9.05;57.08
23635;BME280;11994;51.038;16.974;2023-04-26T10:34:20;100032.95;;;9.44;56.68
23635;BME280;11994;51.038;16.974;2023-04-26T10:39:44;100035.93;;;9.44;56.00
23635;BME280;11994;51.038;16.974;2023-04-26T10:42:16;100043.87;;;9.39;55.58
23635;BME280;11994;51.038;16.974;2023-04-26T10:47:40;100047.23;;;9.13;56.32
23635;BME280;11994;51.038;16.974;2023-04-26T10:50:08;100052.52;;;9.01;56.19
23635;BME280;11994;51.038;16.974;2023-04-26T10:52:37;100052.40;;;8.99;56.13
23635;BME280;11994;51.038;16.974;2023-04-26T10:55:03;100047.82;;;9.01;56.39
23635;BME280;11994;51.038;16.974;2023-04-26T10:57:46;100046.27;;;9.09;56.33
23635;BME280;11994;51.038;16.974;2023-04-26T11:00:24;100042.05;;;9.19;55.88
23635;BME280;11994;51.038;16.974;2023-04-26T11:05:34;100037.04;;;9.49;54.91
23635;BME280;11994;51.038;16.974;2023-04-26T11:08:03;100037.05;;;9.56;54.19
23635;BME280;11994;51.038;16.974;2023-04-26T11:10:29;100052.02;;;9.50;53.51
23635;BME280;11994;51.038;16.974;2023-04-26T11:13:01;100051.75;;;9.30;53.84
23635;BME280;11994;51.038;16.974;2023-04-26T11:15:27;100051.02;;;9.15;54.22
23635;BME280;11994;51.038;16.974;2023-04-26T11:17:53;100054.59;;;9.11;54.48
23635;BME280;11994;51.038;16.974;2023-04-26T11:20:18;100055.41;;;9.13;54.81
23635;BME280;11994;51.038;16.974;2023-04-26T11:22:43;100050.23;;;9.18;55.20
23635;BME280;11994;51.038;16.974;2023-04-26T11:25:10;100050.58;;;9.28;54.67
23635;BME280;11994;51.038;16.974;2023-04-26T11:27:37;100051.45;;;9.36;54.56
23635;BME280;11994;51.038;16.974;2023-04-26T11:30:02;100053.06;;;9.42;54.78
23635;BME280;11994;51.038;16.974;2023-04-26T11:32:29;100047.38;;;9.47;55.03
23635;BME280;11994;51.038;16.974;2023-04-26T11:34:54;100056.81;;;9.47;54.73
23635;BME280;11994;51.038;16.974;2023-04-26T11:37:19;100062.98;;;9.44;54.41
23635;BME280;11994;51.038;16.974;2023-04-26T11:39:44;100056.34;;;9.36;53.86
23635;BME280;11994;51.038;16.974;2023-04-26T11:42:10;100060.74;;;9.26;53.55
23635;BME280;11994;51.038;16.974;2023-04-26T11:44:36;100057.70;;;9.21;53.74
23635;BME280;11994;51.038;16.974;2023-04-26T11:47:02;100055.45;;;9.29;54.13
23635;BME280;11994;51.038;16.974;2023-04-26T11:49:28;100052.23;;;9.49;54.20
23635;BME280;11994;51.038;16.974;2023-04-26T11:51:53;100053.51;;;9.77;53.76
23635;BME280;11994;51.038;16.974;2023-04-26T11:54:32;100052.02;;;9.88;53.17
23635;BME280;11994;51.038;16.974;2023-04-26T11:56:57;100047.95;;;10.06;52.42
23635;BME280;11994;51.038;16.974;2023-04-26T11:59:23;100049.86;;;10.21;52.82
23635;BME280;11994;51.038;16.974;2023-04-26T12:01:49;100057.50;;;10.24;52.69
23635;BME280;11994;51.038;16.974;2023-04-26T12:04:16;100061.19;;;10.08;52.93
23635;BME280;11994;51.038;16.974;2023-04-26T12:06:42;100067.16;;;9.84;53.98
23635;BME280;11994;51.038;16.974;2023-04-26T12:09:08;100070.14;;;9.59;55.54
23635;BME280;11994;51.038;16.974;2023-04-26T12:11:35;100069.87;;;9.40;55.73
23635;BME280;11994;51.038;16.974;2023-04-26T12:14:00;100058.95;;;9.36;56.22
23635;BME280;11994;51.038;16.974;2023-04-26T12:16:26;100050.81;;;9.49;57.10
23635;BME280;11994;51.038;16.974;2023-04-26T12:18:51;100052.36;;;9.73;56.23
23635;BME280;11994;51.038;16.974;2023-04-26T12:21:17;100056.20;;;9.97;55.68
23635;BME280;11994;51.038;16.974;2023-04-26T12:23:42;100056.36;;;10.06;54.22
23635;BME280;11994;51.038;16.974;2023-04-26T12:26:12;100057.36;;;9.99;53.83
23635;BME280;11994;51.038;16.974;2023-04-26T12:28:37;100059.51;;;9.89;54.27
23635;BME280;11994;51.038;16.974;2023-04-26T12:31:03;100060.74;;;9.74;54.87
23635;BME280;11994;51.038;16.974;2023-04-26T12:33:28;100066.13;;;9.67;54.99
23635;BME280;11994;51.038;16.974;2023-04-26T12:35:54;100067.88;;;9.67;54.52
23635;BME280;11994;51.038;16.974;2023-04-26T12:38:21;100069.93;;;9.69;54.35
23635;BME280;11994;51.038;16.974;2023-04-26T12:40:47;100071.98;;;9.72;53.86
23635;BME280;11994;51.038;16.974;2023-04-26T12:43:12;100063.54;;;9.81;54.42
23635;BME280;11994;51.038;16.974;2023-04-26T12:45:37;100072.17;;;10.02;53.96
23635;BME280;11994;51.038;16.974;2023-04-26T12:48:02;100069.83;;;10.05;53.00
23635;BME280;11994;51.038;16.974;2023-04-26T12:50:28;100067.27;;;10.17;53.19
23635;BME280;11994;51.038;16.974;2023-04-26T12:52:53;100064.56;;;10.34;52.92
23635;BME280;11994;51.038;16.974;2023-04-26T12:55:20;100060.28;;;10.51;53.51
23635;BME280;11994;51.038;16.974;2023-04-26T12:57:45;100065.39;;;10.64;53.12
23635;BME280;11994;51.038;16.974;2023-04-26T13:00:11;100066.67;;;10.55;52.92
23635;BME280;11994;51.038;16.974;2023-04-26T13:02:37;100071.88;;;10.42;52.74
23635;BME280;11994;51.038;16.974;2023-04-26T13:05:02;100069.24;;;10.37;52.72
23635;BME280;11994;51.038;16.974;2023-04-26T13:07:35;100068.27;;;10.33;52.00